createdAt,value
2022-07-29T00:04:01.111Z,0.05
2022-07-29T00:08:59.722Z,0.05
2022-07-29T00:13:59.604Z,0.05
2022-07-29T00:19:03.876Z,0.05
2022-07-29T00:23:58.640Z,0.05
2022-07-29T00:33:58.193Z,0.05
2022-07-29T00:38:57.608Z,0.05
2022-07-29T00:43:54.971Z,0.05
2022-07-29T00:48:53.665Z,0.05
2022-07-29T00:53:53.525Z,0.05
2022-07-29T00:58:52.098Z,0.05
2022-07-29T01:00:14.392Z,0.05
2022-07-29T01:05:16.338Z,0.05
2022-07-29T01:10:14.949Z,0.05
2022-07-29T01:20:10.062Z,0.04
2022-07-29T01:25:09.526Z,0.05
2022-07-29T01:35:15.507Z,0.05
2022-07-29T01:40:14.539Z,0.05
2022-07-29T01:45:13.926Z,0.05
2022-07-29T01:50:13.409Z,0.04
2022-07-29T01:55:12.836Z,0.05
2022-07-29T01:59:33.158Z,0.04
2022-07-29T02:04:32.655Z,0.05
2022-07-29T02:09:31.287Z,0.05
2022-07-29T02:14:32.382Z,0.05
2022-07-29T02:19:30.227Z,0.05
2022-07-29T02:24:30.198Z,0.05
2022-07-29T02:29:29.834Z,0.04
2022-07-29T02:34:28.749Z,0.05
2022-07-29T02:39:27.395Z,0.05
2022-07-29T02:44:34.659Z,0.05
2022-07-29T02:49:26.777Z,0.05
2022-07-29T02:54:25.593Z,0.05
2022-07-29T02:59:14.976Z,0.04
2022-07-29T03:04:16.024Z,0.05
2022-07-29T03:09:15.856Z,0.05
2022-07-29T03:14:15.327Z,0.05
2022-07-29T03:19:12.513Z,0.05
2022-07-29T03:24:15.182Z,0.05
2022-07-29T03:29:20.442Z,0.04
2022-07-29T03:34:10.919Z,0.06
2022-07-29T03:39:10.234Z,0.06
2022-07-29T03:44:09.814Z,0.08
2022-07-29T03:49:00.765Z,0.1
2022-07-29T03:53:59.515Z,0.14
2022-07-29T03:58:46.851Z,0.19
2022-07-29T04:03:46.931Z,0.25
2022-07-29T04:08:45.362Z,0.29
2022-07-29T04:13:45.830Z,0.31
2022-07-29T04:18:44.352Z,0.39
2022-07-29T04:23:55.512Z,0.48
2022-07-29T04:28:42.685Z,0.58
2022-07-29T04:33:42.074Z,0.7
2022-07-29T04:38:40.768Z,0.81
2022-07-29T04:43:40.091Z,0.94
2022-07-29T04:48:39.571Z,1.08
2022-07-29T04:53:39.394Z,1.21
2022-07-29T04:58:38.971Z,1.33
2022-07-29T05:03:38.108Z,1.46
2022-07-29T05:08:37.155Z,1.61
2022-07-29T05:13:48.627Z,1.77
2022-07-29T05:18:34.633Z,1.94
2022-07-29T05:23:34.232Z,2.13
2022-07-29T05:28:33.818Z,2.33
2022-07-29T05:33:38.538Z,2.57
2022-07-29T05:38:32.718Z,2.69
2022-07-29T05:43:32.961Z,2.75
2022-07-29T05:48:32.193Z,2.88
2022-07-29T05:53:31.547Z,3.07
2022-07-29T05:58:29.013Z,3.33
2022-07-29T06:03:28.263Z,3.6
2022-07-29T06:08:27.471Z,3.95
2022-07-29T06:13:26.715Z,4.11
2022-07-29T06:18:26.136Z,4.02
2022-07-29T06:23:26.125Z,4.08
2022-07-29T06:28:26.184Z,4.62
2022-07-29T06:33:24.965Z,5.03
2022-07-29T06:38:51.476Z,5.61
2022-07-29T06:43:26.865Z,5.94
2022-07-29T06:48:21.565Z,6.22
2022-07-29T06:53:20.470Z,6.18
2022-07-29T06:58:19.758Z,6.05
2022-07-29T07:03:19.711Z,6.35
2022-07-29T07:08:19.441Z,7.01
2022-07-29T07:13:18.666Z,7.28
2022-07-29T07:18:17.807Z,10.74
2022-07-29T07:23:16.564Z,9.71
2022-07-29T07:28:16.060Z,10.39
2022-07-29T07:33:15.552Z,9.65
2022-07-29T07:38:14.976Z,13
2022-07-29T07:43:15.114Z,10.59
2022-07-29T07:48:15.162Z,9.77
2022-07-29T07:53:16.247Z,11.63
2022-07-29T07:58:14.131Z,12.35
2022-07-29T07:59:37.665Z,13.03
2022-07-29T08:04:35.051Z,14.2
2022-07-29T08:09:33.958Z,13.07
2022-07-29T08:14:33.074Z,8.41
2022-07-29T08:19:32.440Z,11.33
2022-07-29T08:24:53.138Z,8.79
2022-07-29T08:29:31.460Z,13.81
2022-07-29T08:34:31.839Z,18.04
2022-07-29T08:39:29.742Z,21.46
2022-07-29T08:44:33.320Z,20.9
2022-07-29T08:49:29.095Z,21.65
2022-07-29T08:54:28.641Z,24.27
2022-07-29T08:59:23.339Z,11.41
2022-07-29T09:04:18.197Z,15.81
2022-07-29T09:09:17.557Z,20.58
2022-07-29T09:14:15.016Z,22.92
2022-07-29T09:19:14.221Z,24.13
2022-07-29T09:24:13.454Z,24.97
2022-07-29T09:29:13.128Z,17.03
2022-07-29T09:34:12.752Z,13.61
2022-07-29T09:39:13.703Z,25.84
2022-07-29T09:44:11.818Z,19.56
2022-07-29T09:49:11.741Z,16.29
2022-07-29T09:54:09.951Z,25.88
2022-07-29T09:58:56.280Z,20.51
2022-07-29T10:03:55.630Z,17.31
2022-07-29T10:08:54.690Z,22.03
2022-07-29T10:13:54.735Z,23.93
2022-07-29T10:18:54.945Z,12.52
2022-07-29T10:23:59.651Z,28.91
2022-07-29T10:28:53.419Z,29.14
2022-07-29T10:33:52.771Z,29.61
2022-07-29T10:38:51.841Z,29.35
2022-07-29T10:43:55.873Z,29.76
2022-07-29T10:48:50.648Z,29.88
2022-07-29T10:53:51.492Z,30.57
2022-07-29T10:58:55.747Z,28.46
2022-07-29T11:03:57.833Z,25.65
2022-07-29T12:13:40.127Z,5.86
2022-07-29T12:18:38.324Z,4.82
2022-07-29T12:23:37.954Z,9.81
2022-07-29T12:28:36.815Z,11.64
2022-07-29T12:33:35.802Z,17.07
2022-07-29T12:38:34.559Z,17.4
2022-07-29T12:43:34.290Z,15.71
2022-07-29T12:48:34.133Z,15.44
2022-07-29T12:53:31.226Z,13.44
2022-07-29T12:58:29.911Z,14.6
2022-07-29T12:59:51.888Z,14.53
2022-07-29T13:04:50.816Z,12.83
2022-07-29T13:09:50.236Z,12.26
2022-07-29T13:14:50.415Z,12.18
2022-07-29T13:19:49.888Z,11.83
2022-07-29T13:24:48.930Z,11.44
2022-07-29T13:29:48.602Z,10.99
2022-07-29T13:34:45.759Z,10.8
2022-07-29T13:39:55.587Z,10.6
2022-07-29T13:44:43.749Z,10.05
2022-07-29T13:49:43.597Z,10.41
2022-07-29T13:54:44.813Z,11.2
2022-07-29T13:59:16.590Z,10.88
2022-07-29T14:04:16.185Z,11.13
2022-07-29T14:09:14.929Z,11.02
2022-07-29T14:14:12.781Z,10.21
2022-07-29T14:19:11.967Z,11.04
2022-07-29T14:24:25.750Z,10.18
2022-07-29T14:29:11.569Z,9.04
2022-07-29T14:34:10.234Z,8.97
2022-07-29T14:39:09.448Z,8.71
2022-07-29T14:44:09.584Z,8.95
2022-07-29T14:49:16.191Z,8.99
2022-07-29T14:54:15.796Z,9.61
2022-07-29T14:58:54.890Z,10.17
2022-07-29T15:04:01.420Z,10.31
2022-07-29T15:08:53.599Z,9.54
2022-07-29T15:13:53.882Z,9.14
2022-07-29T15:18:53.301Z,10.13
2022-07-29T15:23:53.514Z,8.56
2022-07-29T15:28:51.760Z,7.87
2022-07-29T15:34:06.579Z,7.52
2022-07-29T15:38:48.814Z,11.31
2022-07-29T15:43:48.064Z,9.48
2022-07-29T15:48:47.771Z,8
2022-07-29T15:53:55.668Z,5.87
2022-07-29T15:58:46.477Z,5.73
2022-07-29T16:03:48.352Z,5.4
2022-07-29T16:08:46.062Z,5.04
2022-07-29T16:13:46.817Z,5
2022-07-29T16:18:44.792Z,4.89
2022-07-29T16:23:42.057Z,4.48
2022-07-29T16:28:40.997Z,4.2
2022-07-29T16:33:57.062Z,4.15
2022-07-29T16:38:49.508Z,4.16
2022-07-29T16:43:39.558Z,4.03
2022-07-29T16:48:41.931Z,3.99
2022-07-29T16:53:38.134Z,3.84
2022-07-29T16:58:44.227Z,3.79
2022-07-29T17:03:37.260Z,3.8
2022-07-29T17:08:34.046Z,3.76
2022-07-29T17:13:34.250Z,3.64
2022-07-29T17:18:33.429Z,3.43
2022-07-29T17:23:33.371Z,3.28
2022-07-29T17:28:33.042Z,3.14
2022-07-29T17:33:33.256Z,2.92
2022-07-29T17:38:31.909Z,2.63
2022-07-29T17:43:31.059Z,2.39
2022-07-29T17:48:28.518Z,2.18
2022-07-29T17:53:27.502Z,1.97
2022-07-29T17:58:26.087Z,1.75
2022-07-29T17:59:47.697Z,1.69
2022-07-29T18:04:52.618Z,1.45
2022-07-29T18:09:46.681Z,1.26
2022-07-29T18:14:46.164Z,1.12
2022-07-29T18:19:45.141Z,0.97
2022-07-29T18:24:44.151Z,0.85
2022-07-29T18:29:41.971Z,0.73
2022-07-29T18:34:40.899Z,0.63
2022-07-29T18:39:39.785Z,0.51
2022-07-29T18:44:50.617Z,0.43
2022-07-29T18:49:38.420Z,0.35
2022-07-29T18:54:38.456Z,0.27
2022-07-29T18:59:15.164Z,0.27
2022-07-29T19:04:14.356Z,0.21
2022-07-29T19:09:13.135Z,0.16
2022-07-29T19:14:11.802Z,0.12
2022-07-29T19:19:10.818Z,0.09
2022-07-29T19:24:17.186Z,0.07
2022-07-29T19:29:09.167Z,0.06
2022-07-29T19:34:16.258Z,0.06
2022-07-29T19:39:15.348Z,0.05
2022-07-29T19:44:14.935Z,0.05
2022-07-29T19:49:14.749Z,0.05
2022-07-29T19:54:13.740Z,0.05
2022-07-29T19:58:54.441Z,0.05
2022-07-29T20:03:52.172Z,0.05
2022-07-29T20:08:59.284Z,0.05
2022-07-29T20:13:52.570Z,0.05
2022-07-29T20:18:50.436Z,0.05
2022-07-29T20:23:50.151Z,0.05
2022-07-29T20:28:51.796Z,0.05
2022-07-29T20:33:46.400Z,0.05
2022-07-29T20:38:45.795Z,0.05
2022-07-29T20:43:44.905Z,0.05
2022-07-29T20:48:44.784Z,0.05
2022-07-29T20:53:43.926Z,0.05
2022-07-29T20:58:43.932Z,0.05
2022-07-29T21:00:13.789Z,0.05
2022-07-29T21:05:14.203Z,0.05
2022-07-29T21:10:11.282Z,0.05
2022-07-29T21:15:11.139Z,0.05
2022-07-29T21:20:10.612Z,0.05
2022-07-29T21:25:09.877Z,0.05
2022-07-29T21:30:02.366Z,0.05
2022-07-29T21:35:00.225Z,0.05
2022-07-29T21:39:59.314Z,0.04
2022-07-29T21:44:57.444Z,0.05
2022-07-29T21:49:56.416Z,0.05
2022-07-29T21:54:55.464Z,0.05
2022-07-29T21:59:15.724Z,0.05
2022-07-29T22:04:15.261Z,0.05
2022-07-29T22:09:14.452Z,0.05
2022-07-29T22:14:13.524Z,0.05
2022-07-29T22:19:12.553Z,0.05
2022-07-29T22:24:11.761Z,0.05
2022-07-29T22:29:10.580Z,0.04
2022-07-29T22:34:09.786Z,0.05
2022-07-29T22:39:18.386Z,0.05
2022-07-29T22:44:16.035Z,0.05
2022-07-29T22:49:15.628Z,0.05
2022-07-29T22:54:14.808Z,0.05
2022-07-29T22:58:58.886Z,0.05
2022-07-29T23:03:56.981Z,0.05
2022-07-29T23:08:55.621Z,0.05
2022-07-29T23:13:55.311Z,0.05
2022-07-29T23:18:54.368Z,0.05
2022-07-29T23:23:53.899Z,0.05
2022-07-29T23:28:53.669Z,0.05
2022-07-29T23:33:52.668Z,0.05
2022-07-29T23:38:53.129Z,0.05
2022-07-29T23:43:49.122Z,0.05
2022-07-29T23:48:48.370Z,0.05
2022-07-29T23:53:55.735Z,0.05
2022-07-29T23:58:46.691Z,0.05
